Time;durP1;ratioP1;P1;durP2;ratioP2;P2;SDS_P1;SDS_P2;PMS_P1;PMS_P2;Temp;Humidity;BMP_temperature;BMP_pressure;BME280_temperature;BME280_humidity;BME280_pressure;Samples;Min_cycle;Max_cycle;Signal;HPM_P1;HPM_P2
2022/02/02 00:00:08;;;;;;;36.90;6.10;;;7.60;99.90;;;;;;5078442;28;20032;-84
2022/02/02 00:02:43;;;;;;;32.88;6.00;;;7.60;99.90;;;;;;5078030;28;20020;-86
2022/02/02 00:05:25;;;;;;;33.28;5.82;;;7.50;99.90;;;;;;5078163;28;20469;-85
2022/02/02 00:08:03;;;;;;;26.73;5.80;;;7.60;99.90;;;;;;5096973;28;20051;-85
2022/02/02 00:21:26;;;;;;;39.90;7.18;;;7.80;99.90;;;;;;5095837;28;20035;-85
2022/02/02 00:23:58;;;;;;;27.95;5.40;;;7.70;99.90;;;;;;5095679;28;20036;-87
2022/02/02 00:26:32;;;;;;;37.40;6.70;;;7.60;99.90;;;;;;5077902;28;20032;-85
2022/02/02 00:29:06;;;;;;;32.47;7.15;;;7.60;99.90;;;;;;5078096;28;20020;-85
2022/02/02 00:31:41;;;;;;;36.10;6.47;;;7.60;99.90;;;;;;5077633;28;20516;-85
2022/02/02 00:34:11;;;;;;;27.88;6.50;;;7.60;99.90;;;;;;5095617;28;20493;-84
2022/02/02 00:36:46;;;;;;;42.08;7.72;;;7.60;99.90;;;;;;5078006;28;20036;-85
2022/02/02 00:39:12;;;;;;;32.47;6.18;;;7.60;99.90;;;;;;5077437;28;20156;-85
2022/02/02 00:41:37;;;;;;;31.48;6.38;;;7.60;99.90;;;;;;5096143;28;20029;-85
2022/02/02 00:44:04;;;;;;;28.05;5.95;;;7.70;99.90;;;;;;5095893;28;20043;-86
2022/02/02 00:46:30;;;;;;;37.97;7.38;;;7.70;99.90;;;;;;5095759;28;20108;-85
2022/02/02 00:49:02;;;;;;;36.50;7.35;;;7.70;99.90;;;;;;5077142;28;20024;-85
2022/02/02 00:54:04;;;;;;;30.73;6.10;;;7.90;99.90;;;;;;5093821;28;20052;-85
2022/02/02 00:56:30;;;;;;;31.88;6.60;;;7.90;99.90;;;;;;5077449;28;20024;-84
2022/02/02 00:58:55;;;;;;;35.10;7.20;;;7.90;99.90;;;;;;5077146;28;20039;-85
2022/02/02 01:01:21;;;;;;;37.33;7.13;;;7.90;99.90;;;;;;5094951;28;20028;-85
2022/02/02 01:03:47;;;;;;;33.63;6.43;;;7.90;99.90;;;;;;5076983;28;20043;-85
2022/02/02 01:06:17;;;;;;;36.83;7.03;;;7.90;99.90;;;;;;5077158;28;20123;-87
2022/02/02 01:19:13;;;;;;;41.42;8.43;;;8.00;99.90;;;;;;5095255;28;20075;-85
2022/02/02 01:29:49;;;;;;;34.00;6.28;;;7.90;99.90;;;;;;5095685;28;20101;-85
2022/02/02 01:32:14;;;;;;;29.00;7.38;;;7.80;99.90;;;;;;5076713;28;20039;-86
2022/02/02 01:34:40;;;;;;;31.35;6.43;;;7.80;99.90;;;;;;5094612;28;20093;-87
2022/02/02 01:37:06;;;;;;;34.33;6.90;;;7.70;99.90;;;;;;5095117;28;20499;-85
2022/02/02 01:39:33;;;;;;;37.85;7.07;;;7.70;99.90;;;;;;5076241;28;20047;-87
2022/02/02 01:42:03;;;;;;;43.38;9.30;;;7.70;99.90;;;;;;5076528;28;20028;-86
2022/02/02 01:46:58;;;;;;;37.47;7.53;;;7.60;99.90;;;;;;5094753;28;20070;-85
2022/02/02 01:57:29;;;;;;;40.33;7.32;;;7.40;99.90;;;;;;5094824;28;20044;-86
2022/02/02 01:59:56;;;;;;;34.40;6.88;;;7.40;99.90;;;;;;5076582;28;20093;-86
2022/02/02 02:02:22;;;;;;;29.92;6.35;;;7.50;99.90;;;;;;5078925;28;20141;-84
2022/02/02 02:04:48;;;;;;;32.90;7.28;;;7.50;99.90;;;;;;5077305;28;20036;-85
2022/02/02 02:07:15;;;;;;;37.90;7.20;;;7.50;99.90;;;;;;5094391;28;20028;-85
2022/02/02 02:09:41;;;;;;;39.10;6.50;;;7.60;99.90;;;;;;5094041;28;20074;-85
2022/02/02 02:12:10;;;;;;;43.25;7.50;;;7.60;99.90;;;;;;5094439;28;20032;-86
2022/02/02 02:17:12;;;;;;;37.20;6.63;;;7.60;99.90;;;;;;5094373;28;20122;-85
2022/02/02 02:19:41;;;;;;;34.75;6.28;;;7.50;99.90;;;;;;5075908;28;20040;-85
2022/02/02 02:22:11;;;;;;;35.10;6.38;;;7.40;99.90;;;;;;5075963;28;20471;-85
2022/02/02 02:24:39;;;;;;;36.28;7.05;;;7.40;99.90;;;;;;5075524;28;20524;-84
2022/02/02 02:27:05;;;;;;;34.70;7.63;;;7.40;99.90;;;;;;5076003;28;20181;-85
2022/02/02 02:32:40;;;;;;;32.33;7.60;;;7.40;99.90;;;;;;5093534;28;20093;-83
2022/02/02 02:56:43;;;;;;;33.58;6.22;;;7.40;99.90;;;;;;5093531;28;20047;-83
2022/02/02 02:59:14;;;;;;;45.70;8.25;;;7.40;99.90;;;;;;5075030;28;20032;-84
2022/02/02 03:56:31;;;;;;;33.65;6.63;;;7.50;99.90;;;;;;5096784;28;20058;-85
2022/02/02 04:07:00;;;;;;;33.53;5.65;;;7.50;99.90;;;;;;5106576;28;19955;-83
2022/02/02 04:09:29;;;;;;;30.45;6.43;;;7.40;99.90;;;;;;5106086;28;20538;-84
2022/02/02 05:16:45;;;;;;;30.60;5.68;;;8.00;99.90;;;;;;5095207;28;20043;-84
2022/02/02 05:22:09;;;;;;;37.55;7.70;;;7.90;99.90;;;;;;5094970;28;20024;-85
2022/02/02 05:41:24;;;;;;;35.42;7.15;;;8.00;99.90;;;;;;5092771;28;20695;-87
2022/02/02 05:49:09;;;;;;;36.58;6.47;;;8.00;99.90;;;;;;5091795;28;20473;-88
2022/02/02 05:51:48;;;;;;;31.25;5.63;;;7.90;99.90;;;;;;5091455;28;20032;-89
2022/02/02 05:54:14;;;;;;;28.65;6.90;;;7.90;99.90;;;;;;5074058;28;20055;-90
2022/02/02 05:56:44;;;;;;;29.40;7.20;;;7.90;99.90;;;;;;5091249;28;20040;-88
2022/02/02 05:59:11;;;;;;;35.15;7.65;;;7.80;99.90;;;;;;5091310;28;20052;-86
2022/02/02 06:01:44;;;;;;;32.72;6.15;;;7.80;99.90;;;;;;5072834;28;20028;-87
2022/02/02 06:04:13;;;;;;;30.90;6.82;;;7.80;99.90;;;;;;5077567;28;20032;-85
2022/02/02 06:06:42;;;;;;;35.67;6.65;;;7.70;99.90;;;;;;5090834;28;20044;-87
2022/02/02 06:09:07;;;;;;;24.92;6.40;;;7.70;99.90;;;;;;5073654;28;20020;-86
2022/02/02 06:11:34;;;;;;;33.65;6.10;;;7.70;99.90;;;;;;5073487;28;20032;-87
2022/02/02 06:14:00;;;;;;;29.80;6.00;;;7.70;99.90;;;;;;5073192;28;20051;-87
2022/02/02 06:16:29;;;;;;;25.80;5.38;;;7.70;99.90;;;;;;5073108;28;20035;-86
2022/02/02 06:18:57;;;;;;;27.05;6.05;;;7.60;99.90;;;;;;5074788;28;20085;-90
2022/02/02 06:21:27;;;;;;;30.88;5.35;;;7.50;99.90;;;;;;5073749;28;20064;-88
2022/02/02 06:24:07;;;;;;;31.77;7.18;;;7.60;99.90;;;;;;5092507;28;20052;-89
2022/02/02 06:26:45;;;;;;;31.27;6.38;;;7.50;99.90;;;;;;5073909;28;20028;-89
2022/02/02 06:29:12;;;;;;;35.13;6.28;;;7.50;99.90;;;;;;5073342;28;20028;-87
2022/02/02 06:31:40;;;;;;;26.25;5.50;;;7.50;99.90;;;;;;5073559;28;20427;-86
2022/02/02 06:34:12;;;;;;;29.40;5.97;;;7.50;99.90;;;;;;5065823;28;20028;-85
2022/02/02 06:36:39;;;;;;;30.70;5.57;;;7.40;99.90;;;;;;5074571;28;20024;-84
2022/02/02 06:39:07;;;;;;;28.98;4.82;;;7.40;99.90;;;;;;5092263;28;20076;-83
2022/02/02 06:41:32;;;;;;;30.73;5.93;;;7.40;99.90;;;;;;5075613;28;20073;-87
2022/02/02 06:43:58;;;;;;;21.35;4.97;;;7.40;99.90;;;;;;5079644;28;20028;-85
2022/02/02 06:46:30;;;;;;;21.70;5.10;;;7.40;99.90;;;;;;5092898;28;20028;-86
2022/02/02 06:48:57;;;;;;;28.02;4.93;;;7.40;99.90;;;;;;5079524;28;20677;-86
2022/02/02 06:51:33;;;;;;;31.17;6.47;;;7.40;99.90;;;;;;5077470;28;20035;-86
2022/02/02 06:54:08;;;;;;;30.38;5.85;;;7.30;99.90;;;;;;5080257;28;20413;-85
2022/02/02 06:56:48;;;;;;;22.58;4.57;;;7.30;99.90;;;;;;5080382;28;20036;-87
2022/02/02 07:13:15;;;;;;;30.15;5.03;;;7.20;99.90;;;;;;5067193;28;20448;-85
2022/02/02 07:20:56;;;;;;;26.63;4.60;;;7.20;99.90;;;;;;5097411;28;20032;-86
2022/02/02 07:26:43;;;;;;;23.58;3.95;;;7.20;99.90;;;;;;5058164;28;20040;-85
2022/02/02 07:32:12;;;;;;;18.60;3.67;;;7.10;99.90;;;;;;5098402;28;20024;-85
2022/02/02 07:37:33;;;;;;;15.32;3.80;;;7.00;99.90;;;;;;5096801;28;20107;-85
2022/02/02 07:40:03;;;;;;;17.95;3.10;;;7.00;99.90;;;;;;5078919;28;20547;-85
2022/02/02 07:42:30;;;;;;;21.02;4.10;;;6.90;99.90;;;;;;5079091;28;20039;-84
2022/02/02 07:45:08;;;;;;;16.55;3.95;;;6.90;99.90;;;;;;5095920;28;20043;-85
2022/02/02 07:47:38;;;;;;;13.02;3.25;;;6.90;99.90;;;;;;5074361;28;20039;-85
2022/02/02 07:50:07;;;;;;;19.05;3.63;;;7.00;99.90;;;;;;5077976;28;20031;-87
2022/02/02 07:52:34;;;;;;;19.50;3.75;;;7.00;99.90;;;;;;5096447;28;20111;-84
2022/02/02 07:55:02;;;;;;;22.63;5.00;;;7.20;99.90;;;;;;5084914;28;20094;-85
2022/02/02 07:57:29;;;;;;;22.60;4.22;;;7.20;99.90;;;;;;5097061;28;20826;-86
2022/02/02 08:00:02;;;;;;;16.38;3.10;;;7.30;99.90;;;;;;5078502;28;20032;-84
2022/02/02 08:05:04;;;;;;;20.15;3.78;;;7.40;99.90;;;;;;5094283;28;20035;-85
2022/02/02 08:07:37;;;;;;;22.13;4.15;;;7.50;99.90;;;;;;5078065;28;20081;-86
2022/02/02 08:10:12;;;;;;;18.73;3.60;;;7.50;99.90;;;;;;5083073;28;20489;-85
2022/02/02 08:13:00;;;;;;;15.82;2.90;;;7.50;99.90;;;;;;5084178;28;20436;-85
2022/02/02 08:15:31;;;;;;;19.65;3.90;;;7.50;99.90;;;;;;5066398;28;20032;-85
2022/02/02 08:17:56;;;;;;;24.30;3.92;;;7.50;99.90;;;;;;5077491;28;20443;-86
2022/02/02 08:20:25;;;;;;;23.08;3.90;;;7.50;99.90;;;;;;5077278;28;20040;-85
2022/02/02 08:23:10;;;;;;;22.42;4.30;;;7.50;99.90;;;;;;5095394;28;20028;-86
2022/02/02 08:25:37;;;;;;;28.20;5.82;;;7.50;99.90;;;;;;5095381;28;20506;-86
2022/02/02 08:28:05;;;;;;;25.05;5.20;;;7.50;99.90;;;;;;5081875;28;20073;-85
2022/02/02 08:30:31;;;;;;;24.13;4.13;;;7.60;99.90;;;;;;5094444;28;20147;-86
2022/02/02 08:33:00;;;;;;;26.23;5.13;;;7.60;99.90;;;;;;5093459;28;20043;-85
2022/02/02 08:35:45;;;;;;;23.60;4.43;;;7.60;99.90;;;;;;5084147;28;20710;-87
2022/02/02 08:43:10;;;;;;;23.40;6.05;;;7.80;99.90;;;;;;5095584;28;20040;-86
2022/02/02 08:45:39;;;;;;;17.92;4.15;;;7.80;99.90;;;;;;5088819;28;20491;-85
2022/02/02 08:48:08;;;;;;;22.58;4.72;;;7.80;99.90;;;;;;5087936;28;20497;-86
2022/02/02 08:53:13;;;;;;;28.13;4.78;;;7.80;99.90;;;;;;5095028;28;20037;-85
2022/02/02 09:00:55;;;;;;;28.55;5.50;;;7.90;99.90;;;;;;5095330;28;20556;-87
2022/02/02 09:06:05;;;;;;;24.52;5.43;;;8.10;99.90;;;;;;5094925;28;20043;-87
2022/02/02 09:08:33;;;;;;;23.73;4.65;;;8.20;99.90;;;;;;5084640;28;20027;-87
2022/02/02 09:24:25;;;;;;;21.55;5.65;;;8.50;99.90;;;;;;5105131;28;20043;-86
2022/02/02 09:34:44;;;;;;;32.95;6.97;;;8.40;99.90;;;;;;5075487;28;20029;-87
2022/02/02 09:37:10;;;;;;;34.30;6.57;;;8.40;99.90;;;;;;5076891;28;20402;-87
2022/02/02 09:39:43;;;;;;;33.05;6.90;;;8.50;99.90;;;;;;5081393;28;20055;-87
2022/02/02 09:42:13;;;;;;;33.90;7.10;;;8.50;99.90;;;;;;5086836;28;20017;-86
2022/02/02 09:44:42;;;;;;;32.67;6.45;;;8.70;99.90;;;;;;5089589;28;20477;-85
2022/02/02 09:47:29;;;;;;;29.85;5.85;;;8.90;99.90;;;;;;5091522;28;20397;-85
2022/02/02 09:52:25;;;;;;;30.42;6.40;;;9.20;99.90;;;;;;5115500;28;20073;-87
2022/02/02 09:55:04;;;;;;;31.10;6.63;;;9.60;99.90;;;;;;5095635;28;20027;-87
2022/02/02 10:05:10;;;;;;;26.95;6.25;;;12.60;99.90;;;;;;5110417;28;20071;-87
2022/02/02 10:15:24;;;;;;;29.25;6.63;;;12.10;99.90;;;;;;5102933;28;20073;-85
2022/02/02 10:17:58;;;;;;;28.65;7.38;;;11.90;99.90;;;;;;5090533;28;20028;-86
2022/02/02 10:20:24;;;;;;;;;;;11.60;99.90;;;;;;5087479;28;20058;-87
2022/02/02 10:22:52;;;;;;;29.45;6.45;;;11.50;99.90;;;;;;5111651;28;19904;-87
2022/02/02 10:25:29;;;;;;;36.88;7.15;;;11.50;99.90;;;;;;5083028;28;20056;-87
2022/02/02 10:28:16;;;;;;;31.70;7.35;;;11.30;99.90;;;;;;5098055;28;20025;-87
2022/02/02 10:30:46;;;;;;;26.52;6.15;;;11.60;99.90;;;;;;5081096;28;20575;-86
2022/02/02 10:33:13;;;;;;;33.97;7.22;;;12.20;99.90;;;;;;5070037;28;20568;-85
2022/02/02 10:35:43;;;;;;;26.98;6.10;;;12.60;99.90;;;;;;5094049;28;20546;-86
2022/02/02 10:38:13;;;;;;;30.70;6.40;;;12.50;99.90;;;;;;5112102;28;20055;-87
2022/02/02 10:40:50;;;;;;;27.20;5.95;;;12.10;99.90;;;;;;5105507;28;20024;-87
2022/02/02 10:43:37;;;;;;;30.35;7.82;;;11.70;99.90;;;;;;5075166;28;20028;-86
2022/02/02 10:46:30;;;;;;;27.73;5.95;;;11.80;99.90;;;;;;5089327;28;20070;-87
2022/02/02 10:49:19;;;;;;;34.20;6.47;;;11.50;99.90;;;;;;5093784;28;20324;-87
2022/02/02 10:51:55;;;;;;;30.60;6.90;;;11.60;99.90;;;;;;5088099;28;20266;-88
2022/02/02 10:55:16;;;;;;;29.63;6.00;;;11.40;99.90;;;;;;5083506;28;20046;-90
2022/02/02 10:57:34;;;;;;;28.58;6.07;;;11.20;99.90;;;;;;5087887;28;20028;-90
2022/02/02 11:00:09;;;;;;;27.88;5.95;;;11.00;99.90;;;;;;5077194;28;20048;-91
2022/02/02 11:08:04;;;;;;;26.52;6.47;;;10.30;99.90;;;;;;5104926;28;20059;-88
2022/02/02 11:10:30;;;;;;;23.05;4.68;;;10.30;99.90;;;;;;5085708;28;20497;-90
2022/02/02 11:12:57;;;;;;;24.50;5.90;;;10.30;99.90;;;;;;5100016;28;20067;-90
2022/02/02 11:15:38;;;;;;;24.27;5.22;;;10.80;99.90;;;;;;5096873;28;20097;-90
2022/02/02 11:18:27;;;;;;;25.48;5.95;;;11.90;99.90;;;;;;5086164;28;20032;-90
2022/02/02 11:20:53;;;;;;;26.10;6.00;;;12.60;99.90;;;;;;5083916;28;20055;-88
2022/02/02 11:23:21;;;;;;;24.98;6.22;;;13.30;99.90;;;;;;5108315;28;20039;-89
2022/02/02 11:25:55;;;;;;;26.70;5.55;;;14.00;99.90;;;;;;5088923;28;20054;-88
2022/02/02 11:28:21;;;;;;;;;;;14.70;99.90;;;;;;5076136;28;20036;-90
2022/02/02 11:30:49;;;;;;;22.15;4.82;;;14.40;99.90;;;;;;5093059;28;19930;-88
2022/02/02 11:33:15;;;;;;;23.45;5.20;;;14.00;99.90;;;;;;5095053;28;20071;-87
2022/02/02 11:35:46;;;;;;;27.02;5.68;;;13.60;99.90;;;;;;5075018;28;20059;-90
2022/02/02 11:38:23;;;;;;;27.25;5.00;;;13.20;99.90;;;;;;5075993;28;20462;-87
2022/02/02 11:41:05;;;;;;;20.60;4.32;;;12.80;99.90;;;;;;5096760;28;20024;-88
2022/02/02 11:44:12;;;;;;;22.92;5.32;;;12.50;99.90;;;;;;5058359;28;20402;-89
2022/02/02 11:47:20;;;;;;;19.20;4.80;;;12.30;99.90;;;;;;5087102;28;20089;-87
2022/02/02 11:49:52;;;;;;;23.73;5.70;;;12.20;99.90;;;;;;5079840;28;20073;-87
2022/02/02 11:52:40;;;;;;;17.98;4.45;;;13.30;99.90;;;;;;5100367;28;20075;-87
2022/02/02 11:55:12;;;;;;;19.38;4.55;;;13.40;99.90;;;;;;5078748;28;20493;-87
2022/02/02 11:57:57;;;;;;;22.98;4.32;;;13.60;99.90;;;;;;5080713;28;20040;-87
2022/02/02 12:08:25;;;;;;;16.95;4.22;;;13.90;99.90;;;;;;5097843;28;20031;-88
2022/02/02 12:57:47;;;;;;;9.65;2.58;;;12.20;99.90;;;;;;5095644;28;20050;-89
2022/02/02 13:00:36;;;;;;;11.90;2.60;;;12.60;99.90;;;;;;5109004;28;20039;-89
2022/02/02 13:03:03;;;;;;;9.80;2.03;;;12.90;99.90;;;;;;5102643;28;20034;-88
2022/02/02 13:05:29;;;;;;;11.85;2.63;;;13.40;99.90;;;;;;5088376;28;20042;-88
2022/02/02 13:07:59;;;;;;;12.90;3.05;;;14.30;99.90;;;;;;5095131;28;20036;-88
2022/02/02 13:10:27;;;;;;;9.02;2.10;;;15.10;99.90;;;;;;5095767;28;20032;-87
2022/02/02 13:13:25;;;;;;;8.77;1.98;;;15.70;99.90;;;;;;5092630;28;20038;-89
2022/02/02 13:16:15;;;;;;;9.13;2.60;;;15.80;99.90;;;;;;5090830;28;20188;-88
2022/02/02 13:18:44;;;;;;;10.13;2.25;;;15.90;99.90;;;;;;5088253;28;20036;-88
2022/02/02 13:27:12;;;;;;;10.27;2.10;;;17.00;99.90;;;;;;5094731;28;20040;-87
2022/02/02 13:29:28;;;;;;;6.85;1.90;;;17.00;99.90;;;;;;5096994;28;20028;-88
2022/02/02 13:59:18;;;;;;;11.00;2.88;;;18.40;99.90;;;;;;5051955;28;20044;-89
2022/02/02 14:01:55;;;;;;;10.23;3.05;;;18.00;99.90;;;;;;5077370;28;20053;-89
2022/02/02 14:05:55;;;;;;;12.27;2.53;;;17.80;99.90;;;;;;5077959;28;20100;-88
2022/02/02 14:07:53;;;;;;;10.70;2.80;;;17.50;99.90;;;;;;5070134;28;20393;-87
2022/02/02 14:32:04;;;;;;;12.88;2.75;;;12.70;99.90;;;;;;5098834;28;20054;-85
2022/02/02 14:34:29;;;;;;;9.32;2.30;;;12.50;99.90;;;;;;5107923;28;20024;-83
2022/02/02 14:36:55;;;;;;;11.68;2.85;;;12.40;99.90;;;;;;5100625;28;20064;-85
2022/02/02 14:39:37;;;;;;;10.93;2.30;;;12.30;99.90;;;;;;5112542;28;20051;-85
2022/02/02 14:42:18;;;;;;;9.65;2.10;;;12.30;99.90;;;;;;5097125;28;20055;-88
2022/02/02 14:44:45;;;;;;;10.68;2.40;;;12.10;99.90;;;;;;5099531;28;20039;-90
2022/02/02 14:47:15;;;;;;;12.95;2.53;;;12.10;99.90;;;;;;5109738;28;20089;-87
2022/02/02 14:49:53;;;;;;;14.52;2.97;;;12.00;99.90;;;;;;5098176;28;20027;-92
2022/02/02 14:55:55;;;;;;;11.93;2.53;;;11.80;99.90;;;;;;5100766;28;20016;-90
2022/02/02 15:07:59;;;;;;;11.90;3.05;;;11.40;99.90;;;;;;5112419;28;20093;-90
2022/02/02 15:33:05;;;;;;;10.57;2.83;;;11.00;99.90;;;;;;5086471;28;20682;-90
2022/02/02 15:35:32;;;;;;;12.07;2.50;;;11.00;99.90;;;;;;5086414;28;20035;-88
2022/02/02 15:40:29;;;;;;;15.93;2.70;;;11.00;99.90;;;;;;5105479;28;20110;-86
2022/02/02 15:43:46;;;;;;;11.10;2.67;;;10.90;99.90;;;;;;5094201;28;20515;-89
2022/02/02 16:02:04;;;;;;;15.18;3.50;;;10.40;99.90;;;;;;5116110;28;20452;-88
2022/02/02 16:04:37;;;;;;;13.82;3.08;;;10.40;99.90;;;;;;5102244;28;20401;-88
2022/02/02 16:07:06;;;;;;;15.98;4.28;;;10.40;99.90;;;;;;5071617;28;20039;-87
2022/02/02 16:09:48;;;;;;;13.02;3.00;;;10.30;99.90;;;;;;5099195;28;20385;-88
2022/02/02 16:12:26;;;;;;;12.98;3.10;;;10.30;99.90;;;;;;5082628;28;20040;-87
2022/02/02 16:15:17;;;;;;;11.05;3.13;;;10.30;99.90;;;;;;5095429;28;20233;-86
2022/02/02 16:17:58;;;;;;;10.32;2.85;;;10.20;99.90;;;;;;5110528;28;20549;-87
2022/02/02 16:39:39;;;;;;;12.18;2.70;;;9.60;99.90;;;;;;5092764;28;20096;-87
2022/02/02 16:44:24;;;;;;;10.35;2.67;;;9.50;99.90;;;;;;5107325;28;20034;-89
2022/02/02 16:46:50;;;;;;;14.07;3.38;;;9.50;99.90;;;;;;5083920;28;20035;-87
2022/02/02 16:49:16;;;;;;;10.93;2.58;;;9.40;99.90;;;;;;5101395;28;20056;-87
2022/02/02 16:51:42;;;;;;;11.63;2.88;;;9.40;99.90;;;;;;5083169;28;20031;-89
2022/02/02 16:54:15;;;;;;;10.25;3.15;;;9.40;99.90;;;;;;5068215;28;20626;-89
2022/02/02 17:35:22;;;;;;;10.20;2.92;;;9.30;99.90;;;;;;4975706;28;20039;-86
2022/02/02 17:45:50;;;;;;;11.90;3.92;;;9.20;99.90;;;;;;5071132;28;20071;-90
2022/02/02 17:57:18;;;;;;;9.63;2.85;;;9.10;99.90;;;;;;5091059;28;20084;-87
2022/02/02 18:12:18;;;;;;;;;;;9.20;99.90;;;;;;5091342;28;20040;-89
2022/02/02 18:20:53;;;;;;;14.93;4.43;;;9.20;99.90;;;;;;5085899;28;20078;-85
2022/02/02 18:28:49;;;;;;;14.95;5.20;;;9.10;99.90;;;;;;5089545;28;20089;-87
2022/02/02 18:49:45;;;;;;;13.45;5.93;;;9.10;99.90;;;;;;5099846;28;20051;-91
2022/02/02 19:07:50;;;;;;;11.98;6.35;;;9.10;99.90;;;;;;5090455;28;20036;-87
2022/02/02 19:31:06;;;;;;;14.40;7.88;;;9.20;99.90;;;;;;5076912;28;20044;-86
2022/02/02 19:56:49;;;;;;;11.27;7.22;;;9.20;99.90;;;;;;5098115;28;20066;-90
2022/02/02 20:02:15;;;;;;;12.07;8.00;;;9.20;99.90;;;;;;5094222;28;20039;-90
2022/02/02 20:12:16;;;;;;;15.50;9.70;;;9.20;99.90;;;;;;5093426;28;20032;-90
2022/02/02 20:14:42;;;;;;;15.18;10.77;;;9.20;99.90;;;;;;5076518;28;20064;-90
2022/02/02 20:17:15;;;;;;;17.30;12.23;;;9.20;99.90;;;;;;5093201;28;20073;-90
2022/02/02 20:19:44;;;;;;;15.20;11.18;;;9.20;99.90;;;;;;5082917;28;20036;-88
2022/02/02 20:22:11;;;;;;;16.15;10.73;;;9.20;99.90;;;;;;5092470;28;20067;-88
2022/02/02 20:24:50;;;;;;;16.48;11.23;;;9.20;99.90;;;;;;5073670;28;20121;-88
2022/02/02 20:27:15;;;;;;;16.73;10.57;;;9.10;99.90;;;;;;5093774;28;20077;-89
2022/02/02 20:29:41;;;;;;;18.83;12.07;;;9.10;99.90;;;;;;5094069;28;20378;-89
2022/02/02 20:32:07;;;;;;;17.48;11.25;;;9.10;99.90;;;;;;5092949;28;20115;-88
2022/02/02 20:34:33;;;;;;;17.58;12.05;;;9.10;99.90;;;;;;5092103;28;20127;-85
2022/02/02 20:36:59;;;;;;;16.25;11.43;;;9.10;99.90;;;;;;5089323;28;20103;-87
2022/02/02 20:41:55;;;;;;;18.92;12.00;;;9.10;99.90;;;;;;5070182;28;20673;-85
2022/02/02 20:44:34;;;;;;;16.55;11.52;;;9.10;99.90;;;;;;5083676;28;20044;-90
2022/02/02 21:01:14;;;;;;;25.20;15.15;;;9.10;99.90;;;;;;5093126;28;20079;-86
2022/02/02 21:11:16;;;;;;;27.60;16.30;;;9.10;99.90;;;;;;5092283;28;20028;-85
2022/02/02 21:13:44;;;;;;;30.92;18.48;;;9.00;99.90;;;;;;5091125;28;20055;-86
2022/02/02 21:16:13;;;;;;;31.33;18.80;;;9.00;99.90;;;;;;5090187;28;20036;-88
2022/02/02 21:18:41;;;;;;;33.72;20.13;;;9.10;99.90;;;;;;5090662;28;20036;-86
2022/02/02 21:21:20;;;;;;;32.85;19.27;;;9.00;99.90;;;;;;5083327;28;20054;-84
2022/02/02 21:24:20;;;;;;;35.67;19.67;;;9.00;99.90;;;;;;5085060;28;20059;-86
2022/02/02 21:29:22;;;;;;;35.35;20.35;;;9.00;99.90;;;;;;5091161;28;20044;-87
2022/02/02 21:31:49;;;;;;;36.00;20.65;;;9.10;99.90;;;;;;5072755;28;20564;-86
2022/02/02 21:34:15;;;;;;;34.88;21.00;;;9.00;99.90;;;;;;5087789;28;20118;-86
2022/02/02 21:36:41;;;;;;;33.58;20.50;;;9.00;99.90;;;;;;5090866;28;20035;-86
2022/02/02 21:39:09;;;;;;;35.40;20.52;;;8.90;99.90;;;;;;5084204;28;20048;-87
2022/02/02 21:41:39;;;;;;;35.85;20.25;;;8.90;99.90;;;;;;5068423;28;20032;-86
2022/02/02 21:44:09;;;;;;;29.25;17.73;;;8.90;99.90;;;;;;5055447;28;20036;-85
2022/02/02 21:46:34;;;;;;;33.22;20.15;;;8.90;99.90;;;;;;5090128;28;20033;-84
2022/02/02 21:49:01;;;;;;;32.83;20.20;;;8.90;99.90;;;;;;5079971;28;20066;-86
2022/02/02 21:51:37;;;;;;;34.17;19.90;;;8.90;99.90;;;;;;5083326;28;20811;-85
2022/02/02 21:54:04;;;;;;;32.05;18.92;;;8.90;99.90;;;;;;5091330;28;20040;-84
2022/02/02 21:56:30;;;;;;;34.42;19.88;;;8.90;99.90;;;;;;5072324;28;20039;-86
2022/02/02 21:58:55;;;;;;;33.90;20.02;;;8.90;99.90;;;;;;5072492;28;20040;-86
2022/02/02 22:01:21;;;;;;;36.90;21.73;;;8.90;99.90;;;;;;5081156;28;20040;-86
2022/02/02 22:03:47;;;;;;;36.45;22.77;;;8.90;99.90;;;;;;5091620;28;20393;-85
2022/02/02 22:06:12;;;;;;;38.75;23.05;;;8.90;99.90;;;;;;5072758;28;20032;-87
2022/02/02 22:08:38;;;;;;;40.88;24.60;;;9.00;99.90;;;;;;5090830;28;20035;-86
2022/02/02 22:11:04;;;;;;;37.60;22.88;;;9.00;99.90;;;;;;5065369;28;20043;-87
2022/02/02 22:13:40;;;;;;;37.30;21.75;;;8.90;99.90;;;;;;5072504;28;20028;-85
2022/02/02 22:16:12;;;;;;;36.63;21.77;;;9.00;99.90;;;;;;5087501;28;20047;-85
2022/02/02 22:18:42;;;;;;;42.95;24.30;;;9.00;99.90;;;;;;5066672;28;20136;-87
2022/02/02 22:21:08;;;;;;;37.63;22.80;;;9.00;99.90;;;;;;5068788;28;20035;-87
2022/02/02 22:23:35;;;;;;;37.88;22.63;;;9.00;99.90;;;;;;5094108;28;20048;-87
2022/02/02 22:26:02;;;;;;;33.80;21.25;;;9.00;99.90;;;;;;5093592;28;20039;-86
2022/02/02 22:28:29;;;;;;;39.60;23.45;;;9.00;99.90;;;;;;5113394;28;20028;-85
2022/02/02 22:30:55;;;;;;;37.63;23.13;;;9.00;99.90;;;;;;5111595;28;20035;-85
2022/02/02 22:33:20;;;;;;;36.28;22.90;;;9.10;99.90;;;;;;5099384;28;20043;-85
2022/02/02 22:35:46;;;;;;;41.33;25.70;;;9.10;99.90;;;;;;5080685;28;20477;-84
2022/02/02 22:38:18;;;;;;;43.58;26.63;;;9.10;99.90;;;;;;5088567;28;20031;-88
2022/02/02 22:40:44;;;;;;;41.65;24.38;;;9.10;99.90;;;;;;5096894;28;20447;-85
2022/02/02 22:43:11;;;;;;;45.13;27.40;;;9.10;99.90;;;;;;5100288;28;20024;-87
2022/02/02 22:45:45;;;;;;;44.17;27.55;;;9.10;99.90;;;;;;5094750;28;20027;-86
2022/02/02 22:48:16;;;;;;;42.85;26.27;;;9.10;99.90;;;;;;5076246;28;20492;-85
2022/02/02 22:50:41;;;;;;;42.92;25.77;;;9.10;99.90;;;;;;5075163;28;20040;-85
2022/02/02 22:53:08;;;;;;;41.47;25.75;;;9.10;99.90;;;;;;5092997;28;20024;-85
2022/02/02 22:55:35;;;;;;;40.85;27.05;;;9.10;99.90;;;;;;5088003;28;20507;-87
2022/02/02 22:58:01;;;;;;;41.58;25.58;;;9.10;99.90;;;;;;5112626;28;20427;-86
2022/02/02 23:00:36;;;;;;;42.17;26.63;;;9.10;99.90;;;;;;5074508;28;20040;-85
2022/02/02 23:03:09;;;;;;;40.33;26.42;;;9.10;99.90;;;;;;5092400;28;20024;-86
2022/02/02 23:05:47;;;;;;;44.75;27.98;;;9.10;99.90;;;;;;5093057;28;20508;-86
2022/02/02 23:08:16;;;;;;;44.40;26.95;;;9.10;99.90;;;;;;5074301;28;20028;-85
2022/02/02 23:10:43;;;;;;;40.95;27.40;;;9.10;99.90;;;;;;5079915;28;20056;-89
2022/02/02 23:13:10;;;;;;;37.33;25.77;;;9.10;99.90;;;;;;5073493;28;20035;-87
2022/02/02 23:18:13;;;;;;;42.70;29.15;;;9.20;99.90;;;;;;5112644;28;20046;-87
2022/02/02 23:20:40;;;;;;;40.72;28.40;;;9.20;99.90;;;;;;5071974;28;20097;-85
2022/02/02 23:23:07;;;;;;;41.40;29.45;;;9.10;99.90;;;;;;5090834;28;20535;-86
2022/02/02 23:25:35;;;;;;;38.25;28.15;;;9.20;99.90;;;;;;5070686;28;20293;-87
2022/02/02 23:28:03;;;;;;;41.10;28.98;;;9.20;99.90;;;;;;5052288;28;20045;-86
2022/02/02 23:30:31;;;;;;;38.75;27.95;;;9.10;99.90;;;;;;5052996;28;20047;-88
2022/02/02 23:33:01;;;;;;;33.60;24.60;;;9.20;99.90;;;;;;5053302;28;20028;-85
2022/02/02 23:35:28;;;;;;;38.38;26.08;;;9.10;99.90;;;;;;5074303;28;20037;-87
2022/02/02 23:37:55;;;;;;;39.47;27.23;;;9.20;99.90;;;;;;5074526;28;20036;-86
2022/02/02 23:40:20;;;;;;;35.78;26.05;;;9.10;99.90;;;;;;5049130;28;20044;-87
2022/02/02 23:42:46;;;;;;;35.55;27.05;;;9.10;99.90;;;;;;5056232;28;20237;-87
2022/02/02 23:45:12;;;;;;;38.65;27.70;;;9.10;99.90;;;;;;5073878;28;20037;-87
2022/02/02 23:47:46;;;;;;;39.15;29.73;;;9.00;99.90;;;;;;5055905;28;20433;-88
2022/02/02 23:50:17;;;;;;;37.10;26.77;;;9.10;99.90;;;;;;5073792;28;20670;-86
2022/02/02 23:55:25;;;;;;;37.35;28.35;;;9.00;99.90;;;;;;5074939;28;20516;-87
